Time;durP1;ratioP1;P1;durP2;ratioP2;P2;SDS_P1;SDS_P2;PMS_P1;PMS_P2;Temp;Humidity;BMP_temperature;BMP_pressure;BME280_temperature;BME280_humidity;BME280_pressure;Samples;Min_cycle;Max_cycle;Signal;HPM_P1;HPM_P2
2023/04/25 00:00:34;;;;;;;3.60;3.30;;;;;;;11.42;75.13;98680.69;219062;1257;140392;-70
2023/04/25 00:06:02;;;;;;;6.00;4.70;;;;;;;11.36;75.23;98681.85;218786;1256;140375;-75
2023/04/25 00:11:12;;;;;;;3.80;3.40;;;;;;;11.34;75.60;98673.38;217738;1256;139804;-74
2023/04/25 00:16:20;;;;;;;3.70;3.40;;;;;;;11.33;75.89;98682.70;217997;1260;139858;-70
2023/04/25 00:21:24;;;;;;;4.00;3.60;;;;;;;11.30;76.05;98678.34;217621;1259;139927;-70
2023/04/25 00:26:30;;;;;;;8.50;4.40;;;;;;;11.29;76.27;98682.73;217832;1257;140802;-69
2023/04/25 00:31:32;;;;;;;5.70;4.10;;;;;;;11.27;76.25;98680.48;217552;1256;140428;-70
2023/04/25 00:36:36;;;;;;;4.50;4.00;;;;;;;11.26;76.29;98676.64;217618;1257;151832;-69
2023/04/25 00:41:39;;;;;;;25.00;6.10;;;;;;;11.24;76.24;98678.55;217661;1257;139422;-70
2023/04/25 00:46:42;;;;;;;6.00;4.20;;;;;;;11.21;76.39;98677.27;217472;1257;140275;-73
2023/04/25 00:51:44;;;;;;;5.90;4.10;;;;;;;11.19;76.43;98679.49;217818;1256;139842;-77
2023/04/25 00:56:46;;;;;;;4.30;3.90;;;;;;;11.12;76.45;98680.11;218610;1256;141640;-82
2023/04/25 01:01:49;;;;;;;4.90;4.50;;;;;;;11.01;76.47;98676.04;218653;1258;140370;-76
2023/04/25 01:06:52;;;;;;;5.30;4.30;;;;;;;10.98;76.83;98678.23;218389;1256;139778;-75
2023/04/25 01:11:57;;;;;;;4.80;4.40;;;;;;;10.94;76.61;98678.96;220606;1257;140821;-75
2023/04/25 01:16:59;;;;;;;4.60;4.20;;;;;;;10.93;76.71;98680.23;218423;1257;139935;-74
2023/04/25 01:22:04;;;;;;;5.50;4.50;;;;;;;10.89;76.65;98676.76;217657;1259;140335;-71
2023/04/25 01:27:07;;;;;;;5.90;4.90;;;;;;;10.84;76.72;98674.92;219296;1256;296756;-73
2023/04/25 01:32:10;;;;;;;6.10;5.50;;;;;;;10.85;76.98;98674.29;218623;1256;141005;-73
2023/04/25 01:37:16;;;;;;;4.80;4.40;;;;;;;10.87;77.02;98677.17;219158;1255;231436;-71
2023/04/25 01:42:19;;;;;;;5.00;4.50;;;;;;;10.83;76.99;98676.73;217944;1256;141121;-71
2023/04/25 01:47:22;;;;;;;5.90;4.90;;;;;;;10.76;77.13;98679.96;217584;1257;140251;-79
2023/04/25 01:52:25;;;;;;;6.20;5.40;;;;;;;10.72;77.15;98682.02;217468;1257;140330;-79
2023/04/25 01:57:29;;;;;;;4.70;4.20;;;;;;;10.69;77.02;98683.84;218112;1259;139930;-74
2023/04/25 02:02:31;;;;;;;5.90;5.10;;;;;;;10.62;76.82;98689.35;218950;1256;141007;-74
2023/04/25 02:07:34;;;;;;;7.70;3.70;;;;;;;10.58;76.85;98688.52;217854;1257;139775;-74
2023/04/25 02:12:38;;;;;;;5.50;4.60;;;;;;;10.54;76.89;98690.96;217820;1256;140236;-75
2023/04/25 02:17:41;;;;;;;4.10;3.50;;;;;;;10.48;76.63;98694.45;217843;1259;140231;-75
2023/04/25 02:22:44;;;;;;;12.60;5.30;;;;;;;10.42;76.68;98693.09;217778;1259;140062;-71
2023/04/25 02:27:48;;;;;;;4.90;3.90;;;;;;;10.37;76.48;98693.50;218183;1259;139604;-73
2023/04/25 02:32:51;;;;;;;4.70;3.30;;;;;;;10.27;76.15;98695.98;217586;1259;140757;-72
2023/04/25 02:37:54;;;;;;;4.70;2.80;;;;;;;10.16;75.88;98693.45;219001;1256;140409;-74
2023/04/25 02:42:59;;;;;;;3.30;3.00;;;;;;;10.08;75.83;98691.70;218079;1257;141509;-73
2023/04/25 02:48:03;;;;;;;2.60;2.40;;;;;;;10.04;75.91;98690.88;218470;1256;140007;-73
2023/04/25 02:53:07;;;;;;;2.80;2.40;;;;;;;10.01;76.05;98692.50;218244;1257;141071;-73
2023/04/25 02:58:10;;;;;;;4.20;3.40;;;;;;;9.94;76.00;98700.48;218122;1256;140681;-73
2023/04/25 03:03:14;;;;;;;4.10;3.70;;;;;;;9.88;76.28;98698.41;219270;1257;140803;-73
2023/04/25 03:08:18;;;;;;;7.70;3.00;;;;;;;9.80;75.93;98698.63;218638;1260;140644;-72
2023/04/25 03:13:20;;;;;;;5.00;3.50;;;;;;;9.71;76.27;98700.86;220481;1256;139825;-72
2023/04/25 03:18:22;;;;;;;3.40;3.10;;;;;;;9.66;76.20;98697.09;220543;1256;140327;-73
2023/04/25 03:23:26;;;;;;;4.50;3.60;;;;;;;9.62;76.35;98703.38;220386;1256;140714;-73
2023/04/25 03:28:28;;;;;;;5.70;4.50;;;;;;;9.58;76.41;98705.05;218999;1256;141117;-71
2023/04/25 03:33:31;;;;;;;2.90;2.50;;;;;;;9.54;76.08;98702.77;218108;1257;139413;-73
2023/04/25 03:38:35;;;;;;;3.00;2.70;;;;;;;9.48;76.05;98704.38;219331;1257;140346;-71
2023/04/25 03:43:38;;;;;;;3.00;2.50;;;;;;;9.38;75.79;98711.21;219144;1256;141040;-73
2023/04/25 03:48:42;;;;;;;2.80;2.40;;;;;;;9.29;75.51;98712.34;217662;1257;139964;-72
2023/04/25 03:53:46;;;;;;;2.20;2.00;;;;;;;9.18;74.74;98716.48;218760;1257;140434;-74
2023/04/25 03:58:49;;;;;;;2.10;2.00;;;;;;;9.11;74.83;98716.05;217920;1256;141096;-72
2023/04/25 04:03:52;;;;;;;1.40;1.30;;;;;;;9.13;74.62;98720.70;217623;1257;139989;-70
2023/04/25 04:08:56;;;;;;;1.80;1.70;;;;;;;9.15;74.56;98725.19;218762;1256;140177;-73
2023/04/25 04:13:59;;;;;;;1.80;1.70;;;;;;;9.18;74.30;98728.34;217975;1257;139569;-73
2023/04/25 04:19:03;;;;;;;2.60;2.40;;;;;;;9.17;74.05;98734.44;218910;1259;139655;-74
2023/04/25 04:24:07;;;;;;;4.40;1.90;;;;;;;9.17;73.93;98735.19;217567;1259;140386;-74
2023/04/25 04:29:09;;;;;;;2.00;1.80;;;;;;;9.16;73.55;98734.27;218212;1256;140141;-73
2023/04/25 04:34:13;;;;;;;1.60;1.50;;;;;;;9.13;73.48;98732.55;218005;1260;140032;-72
2023/04/25 04:39:15;;;;;;;2.20;2.00;;;;;;;9.12;73.26;98744.29;217617;1257;140111;-73
2023/04/25 04:44:18;;;;;;;2.10;1.70;;;;;;;9.09;73.30;98745.75;218057;1256;139836;-74
2023/04/25 04:49:22;;;;;;;2.30;2.10;;;;;;;9.09;73.36;98747.02;218730;1256;140477;-75
2023/04/25 04:54:24;;;;;;;2.60;2.40;;;;;;;9.10;73.01;98754.48;218279;1257;139972;-73
2023/04/25 04:59:28;;;;;;;2.10;2.00;;;;;;;9.12;73.21;98754.50;217950;1256;139812;-70
2023/04/25 05:04:32;;;;;;;2.60;2.10;;;;;;;9.16;72.95;98753.05;219004;1257;141408;-72
2023/04/25 05:09:37;;;;;;;2.40;2.20;;;;;;;9.38;72.96;98755.56;219172;1256;140880;-72
2023/04/25 05:14:40;;;;;;;2.50;2.20;;;;;;;9.70;72.77;98753.95;219561;1256;139693;-71
2023/04/25 05:19:44;;;;;;;1.50;1.40;;;;;;;9.94;72.46;98758.41;220537;1256;140123;-76
2023/04/25 05:24:48;;;;;;;2.10;1.90;;;;;;;10.07;71.95;98757.78;218258;1257;140110;-74
2023/04/25 05:29:52;;;;;;;3.50;1.50;;;;;;;10.15;71.58;98756.86;218940;1256;142055;-74
2023/04/25 05:34:56;;;;;;;2.00;1.90;;;;;;;10.28;71.23;98760.83;218464;1257;139994;-75
2023/04/25 05:40:00;;;;;;;3.00;2.10;;;;;;;10.52;71.01;98761.94;219350;1256;139876;-74
2023/04/25 05:45:04;;;;;;;1.70;1.60;;;;;;;10.72;70.72;98767.64;218222;1256;140338;-74
2023/04/25 05:50:08;;;;;;;3.50;1.90;;;;;;;10.84;70.19;98770.80;217861;1257;141062;-75
2023/04/25 05:55:11;;;;;;;1.40;1.30;;;;;;;10.90;69.53;98772.38;218753;1256;139908;-74
2023/04/25 06:00:15;;;;;;;3.20;1.40;;;;;;;10.93;69.32;98772.70;217748;1257;139837;-73
2023/04/25 06:05:17;;;;;;;4.30;2.30;;;;;;;11.08;69.12;98776.06;217622;1256;140645;-74
2023/04/25 06:10:22;;;;;;;3.30;2.00;;;;;;;11.31;68.62;98777.58;217930;1257;224220;-73
2023/04/25 06:15:27;;;;;;;2.10;1.90;;;;;;;11.56;68.45;98780.16;217710;1260;139655;-74
2023/04/25 06:20:32;;;;;;;2.70;2.50;;;;;;;11.67;67.84;98787.05;218193;1257;140736;-73
2023/04/25 06:25:35;;;;;;;3.40;2.60;;;;;;;11.64;67.22;98786.36;217625;1256;140359;-74
2023/04/25 06:30:40;;;;;;;1.90;1.80;;;;;;;11.51;67.29;98787.14;218055;1257;140467;-74
2023/04/25 06:35:44;;;;;;;2.60;2.20;;;;;;;11.41;66.95;98786.09;218734;1256;140204;-75
2023/04/25 06:40:48;;;;;;;5.10;2.10;;;;;;;11.32;66.93;98784.41;217756;1259;140372;-74
2023/04/25 06:45:51;;;;;;;3.70;2.60;;;;;;;11.32;66.90;98789.00;218739;1256;140459;-74
2023/04/25 06:50:56;;;;;;;4.50;2.20;;;;;;;11.36;66.80;98790.61;219163;1256;140542;-74
2023/04/25 06:55:59;;;;;;;3.80;3.40;;;;;;;11.39;66.77;98793.13;218573;1256;139762;-71
2023/04/25 07:01:03;;;;;;;4.40;2.80;;;;;;;11.44;66.63;98797.90;218474;1257;140169;-74
2023/04/25 07:06:07;;;;;;;3.00;2.70;;;;;;;11.50;66.39;98792.36;217842;1256;140032;-73
2023/04/25 07:11:11;;;;;;;4.30;2.40;;;;;;;11.65;66.53;98796.66;220341;1256;139867;-75
2023/04/25 07:16:16;;;;;;;2.80;2.60;;;;;;;11.96;66.24;98788.72;219699;1256;140716;-74
2023/04/25 07:21:19;;;;;;;3.30;3.10;;;;;;;12.20;65.41;98784.98;220359;1256;139839;-74
2023/04/25 07:26:23;;;;;;;4.10;3.10;;;;;;;12.35;65.05;98782.66;220288;1256;140310;-75
2023/04/25 07:31:28;;;;;;;2.80;2.60;;;;;;;12.48;64.91;98789.92;217901;1259;140632;-74
2023/04/25 07:36:31;;;;;;;2.80;2.60;;;;;;;12.55;64.68;98790.37;219245;1256;139781;-74
2023/04/25 07:41:35;;;;;;;4.00;3.10;;;;;;;12.71;64.42;98790.94;218308;1256;141820;-73
2023/04/25 07:46:40;;;;;;;2.70;2.50;;;;;;;12.94;64.25;98790.11;217707;1257;226557;-74
2023/04/25 07:51:43;;;;;;;3.20;2.90;;;;;;;13.19;63.64;98788.54;218151;1257;140678;-75
2023/04/25 07:56:46;;;;;;;13.80;2.80;;;;;;;13.38;63.62;98784.16;217909;1259;139919;-75
2023/04/25 08:01:57;;;;;;;3.20;2.00;;;;;;;13.81;63.40;98784.44;218542;1256;140177;-74
2023/04/25 08:07:01;;;;;;;2.20;2.00;;;;;;;13.86;62.42;98787.63;218272;1257;140608;-73
2023/04/25 08:12:04;;;;;;;3.80;2.00;;;;;;;13.79;61.93;98790.02;217624;1260;140041;-75
2023/04/25 08:17:07;;;;;;;2.20;2.10;;;;;;;13.79;61.30;98792.43;217793;1259;139539;-73
2023/04/25 08:28:52;;;;;;;1.60;1.60;;;;;;;13.88;60.62;98804.11;217657;1257;139479;-74
2023/04/25 08:33:56;;;;;;;2.60;2.40;;;;;;;13.76;60.51;98806.07;218633;1259;140215;-74
2023/04/25 08:39:00;;;;;;;7.40;2.30;;;;;;;13.66;60.02;98806.67;217879;1256;140021;-73
2023/04/25 08:44:05;;;;;;;2.00;1.90;;;;;;;13.73;60.04;98806.67;218518;1256;152666;-73
2023/04/25 08:49:09;;;;;;;1.90;1.80;;;;;;;13.91;60.06;98804.89;219013;1260;139734;-73
2023/04/25 08:54:14;;;;;;;2.80;2.40;;;;;;;13.92;59.36;98804.09;218769;1256;139972;-73
2023/04/25 08:59:40;;;;;;;2.20;1.90;;;;;;;13.64;58.84;98809.04;218866;1259;140238;-76
2023/04/25 09:04:45;;;;;;;2.30;2.10;;;;;;;13.38;59.16;98809.61;217960;1260;139335;-73
2023/04/25 09:09:48;;;;;;;3.10;2.90;;;;;;;13.21;59.23;98822.20;220455;1257;140864;-73
2023/04/25 09:15:12;;;;;;;3.60;3.10;;;;;;;12.91;59.09;98827.89;219852;1257;139518;-74
2023/04/25 09:20:24;;;;;;;2.60;2.40;;;;;;;12.66;59.66;98829.28;220138;1256;139031;-74
2023/04/25 09:25:27;;;;;;;3.40;3.00;;;;;;;12.64;60.02;98825.27;220475;1256;139773;-73
2023/04/25 09:30:35;;;;;;;5.30;4.80;;;;;;;12.71;59.84;98826.34;218146;1257;139550;-74
2023/04/25 09:35:41;;;;;;;3.80;3.50;;;;;;;12.88;60.29;98828.55;218110;1257;139095;-76
2023/04/25 09:40:45;;;;;;;4.40;3.50;;;;;;;12.93;60.14;98829.07;217764;1257;140164;-76
2023/04/25 09:45:51;;;;;;;3.40;3.10;;;;;;;13.00;60.78;98822.58;217586;1257;140646;-75
2023/04/25 09:51:03;;;;;;;5.70;3.10;;;;;;;13.17;60.55;98824.89;217490;1257;140376;-76
2023/04/25 09:56:08;;;;;;;3.00;2.70;;;;;;;13.25;60.10;98828.88;217756;1257;139128;-75
2023/04/25 10:01:11;;;;;;;8.10;3.40;;;;;;;13.40;59.72;98831.44;217576;1260;140881;-74
2023/04/25 10:06:19;;;;;;;3.10;2.80;;;;;;;13.51;59.34;98830.85;219146;1257;141157;-77
2023/04/25 10:11:26;;;;;;;3.80;3.00;;;;;;;13.63;59.51;98831.05;217888;1257;139725;-77
2023/04/25 10:16:30;;;;;;;5.00;2.90;;;;;;;13.71;58.81;98834.29;217719;1256;140965;-77
2023/04/25 10:21:37;;;;;;;3.30;3.10;;;;;;;13.61;58.60;98838.95;217715;1257;140196;-75
2023/04/25 10:26:41;;;;;;;4.40;4.00;;;;;;;13.49;58.30;98837.92;217634;1257;140345;-75
2023/04/25 10:31:48;;;;;;;4.20;3.80;;;;;;;13.38;58.39;98837.40;218529;1256;139233;-76
2023/04/25 10:36:52;;;;;;;3.20;2.70;;;;;;;13.16;58.48;98847.70;218294;1259;139295;-75
2023/04/25 10:42:02;;;;;;;2.80;2.60;;;;;;;12.96;58.63;98844.63;217649;1257;140215;-74
2023/04/25 10:47:07;;;;;;;4.20;3.10;;;;;;;12.74;58.51;98844.36;218682;1255;139798;-74
2023/04/25 10:52:18;;;;;;;4.10;3.80;;;;;;;12.50;58.89;98840.43;218940;1257;139189;-74
2023/04/25 10:57:29;;;;;;;3.90;3.20;;;;;;;12.43;58.88;98836.96;217593;1257;140703;-75
2023/04/25 11:02:36;;;;;;;5.00;3.90;;;;;;;12.43;59.00;98841.56;217659;1257;139131;-74
2023/04/25 11:07:46;;;;;;;6.80;3.30;;;;;;;12.46;58.69;98841.63;217753;1259;139005;-75
2023/04/25 11:13:02;;;;;;;3.40;2.90;;;;;;;12.48;59.16;98838.95;218469;1257;140061;-75
2023/04/25 11:18:06;;;;;;;4.40;3.60;;;;;;;12.58;59.02;98835.06;218436;1257;139039;-75
2023/04/25 11:23:15;;;;;;;4.20;3.70;;;;;;;12.74;59.36;98838.91;219233;1257;140053;-73
2023/04/25 11:28:23;;;;;;;7.70;3.40;;;;;;;12.80;59.08;98839.44;218065;1256;138577;-74
2023/04/25 11:33:29;;;;;;;3.90;3.60;;;;;;;12.78;58.83;98844.47;219344;1257;138786;-79
2023/04/25 11:38:34;;;;;;;4.20;3.00;;;;;;;12.80;58.79;98843.34;217819;1257;139444;-72
2023/04/25 11:43:37;;;;;;;3.40;2.60;;;;;;;12.88;58.64;98844.37;217895;1256;139915;-75
2023/04/25 11:48:41;;;;;;;3.10;2.40;;;;;;;12.93;58.51;98849.13;217504;1256;139804;-75
2023/04/25 11:53:46;;;;;;;4.10;2.60;;;;;;;13.02;58.45;98850.50;217607;1257;141187;-75
2023/04/25 11:58:59;;;;;;;3.20;2.90;;;;;;;13.04;58.29;98850.02;218148;1256;139552;-73
2023/04/25 12:04:15;;;;;;;2.70;2.50;;;;;;;12.99;57.85;98852.01;217681;1256;139689;-77
2023/04/25 12:09:31;;;;;;;4.00;2.30;;;;;;;12.89;57.76;98843.57;217987;1257;139334;-75
2023/04/25 12:14:36;;;;;;;2.30;2.10;;;;;;;12.87;57.86;98843.20;217904;1260;140988;-78
2023/04/25 12:19:40;;;;;;;2.30;2.10;;;;;;;12.87;57.64;98843.58;217834;1257;140185;-72
2023/04/25 12:24:45;;;;;;;2.10;1.80;;;;;;;13.00;57.51;98841.36;217854;1260;141405;-72
2023/04/25 12:29:55;;;;;;;4.90;2.20;;;;;;;13.19;57.61;98838.10;218660;1257;139728;-76
2023/04/25 12:34:59;;;;;;;2.20;2.10;;;;;;;13.24;57.50;98839.64;219055;1257;138953;-77
2023/04/25 12:40:04;;;;;;;1.60;1.50;;;;;;;13.21;56.90;98842.65;217536;1260;139254;-77
2023/04/25 12:45:08;;;;;;;4.80;2.40;;;;;;;13.19;56.70;98842.91;218449;1257;139670;-77
2023/04/25 12:50:11;;;;;;;3.10;2.80;;;;;;;13.11;56.45;98840.16;218997;1257;140637;-73
2023/04/25 12:55:14;;;;;;;2.90;2.30;;;;;;;13.10;56.42;98841.39;219719;1257;139118;-80
2023/04/25 13:00:19;;;;;;;2.90;2.40;;;;;;;13.02;56.57;98837.55;219951;1257;139567;-75
2023/04/25 13:05:23;;;;;;;2.00;1.90;;;;;;;12.84;56.75;98841.29;218008;1257;139411;-79
2023/04/25 13:10:26;;;;;;;2.60;2.40;;;;;;;12.73;56.83;98833.94;219453;1256;140354;-80
2023/04/25 13:15:28;;;;;;;2.40;2.20;;;;;;;12.62;56.74;98833.25;219181;1260;139134;-81
2023/04/25 13:20:32;;;;;;;3.50;2.20;;;;;;;12.60;57.04;98833.73;219585;1259;139721;-75
2023/04/25 13:25:37;;;;;;;2.40;2.10;;;;;;;12.63;57.23;98833.30;218511;1260;426288;-71
2023/04/25 13:30:40;;;;;;;6.20;1.70;;;;;;;12.66;56.68;98838.33;217780;1257;140294;-87
2023/04/25 13:35:42;;;;;;;2.90;2.60;;;;;;;12.67;56.40;98839.83;217677;1260;140132;-78
2023/04/25 13:40:45;;;;;;;2.10;2.00;;;;;;;12.65;56.37;98840.09;218329;1260;139595;-74
2023/04/25 13:45:49;;;;;;;4.60;3.20;;;;;;;12.56;56.24;98841.07;217633;1257;139152;-72
2023/04/25 13:50:53;;;;;;;2.40;2.20;;;;;;;12.34;56.47;98848.56;218539;1259;139288;-70
2023/04/25 13:55:57;;;;;;;24.50;14.80;;;;;;;12.11;56.21;98857.38;218217;1258;140606;-74
2023/04/25 14:01:05;;;;;;;8.10;5.10;;;;;;;11.94;56.66;98857.30;217919;1260;141477;-83
2023/04/25 14:06:10;;;;;;;8.00;3.10;;;;;;;11.84;56.60;98859.64;218598;1260;140593;-77
2023/04/25 14:11:17;;;;;;;3.00;1.60;;;;;;;11.81;56.63;98867.42;217540;1261;140606;-71
2023/04/25 14:16:23;;;;;;;2.30;1.70;;;;;;;11.80;56.25;98868.33;218782;1257;139396;-74
2023/04/25 14:21:28;;;;;;;1.90;1.60;;;;;;;11.74;55.90;98866.05;218333;1260;139933;-81
2023/04/25 14:26:34;;;;;;;3.80;2.10;;;;;;;11.73;55.78;98867.27;218380;1260;139585;-71
2023/04/25 14:31:39;;;;;;;4.50;3.10;;;;;;;11.78;55.69;98867.79;219683;1258;139710;-74
2023/04/25 14:36:41;;;;;;;2.80;2.50;;;;;;;11.75;55.38;98870.80;217875;1257;140030;-71
2023/04/25 14:41:45;;;;;;;2.40;2.20;;;;;;;11.76;55.66;98871.36;220251;1257;140251;-74
2023/04/25 14:46:51;;;;;;;6.20;2.60;;;;;;;11.79;55.83;98877.98;219517;1258;140105;-73
2023/04/25 14:51:54;;;;;;;2.30;2.10;;;;;;;11.76;55.88;98879.41;218056;1259;140215;-73
2023/04/25 14:56:57;;;;;;;2.30;2.10;;;;;;;11.73;55.87;98879.17;220482;1260;139735;-76
2023/04/25 15:01:59;;;;;;;4.10;1.70;;;;;;;11.68;56.02;98882.13;220572;1256;140696;-75
2023/04/25 15:07:01;;;;;;;4.40;3.30;;;;;;;11.65;55.89;98879.45;219750;1257;140539;-71
2023/04/25 15:12:05;;;;;;;5.20;2.80;;;;;;;11.57;56.09;98879.13;219793;1256;140014;-81
2023/04/25 15:17:07;;;;;;;4.20;2.80;;;;;;;11.50;56.30;98877.71;217630;1257;139103;-73
2023/04/25 15:22:10;;;;;;;10.10;2.50;;;;;;;11.45;56.31;98881.00;219749;1257;139466;-70
2023/04/25 15:27:19;;;;;;;7.10;2.70;;;;;;;11.40;56.57;98885.19;218502;1256;140185;-70
2023/04/25 15:32:23;;;;;;;4.20;2.30;;;;;;;11.38;56.86;98882.56;217683;1260;139744;-72
2023/04/25 15:37:26;;;;;;;4.40;2.70;;;;;;;11.37;56.79;98880.86;218854;1260;139682;-71
2023/04/25 15:42:30;;;;;;;3.50;2.60;;;;;;;11.34;56.87;98883.50;218462;1257;204226;-72
2023/04/25 15:47:37;;;;;;;7.90;3.40;;;;;;;11.26;57.20;98882.69;217761;1260;139910;-73
2023/04/25 15:52:41;;;;;;;8.60;5.90;;;;;;;11.25;57.36;98881.83;218390;1257;141126;-76
2023/04/25 15:57:44;;;;;;;6.70;4.80;;;;;;;11.28;57.54;98880.45;217525;1257;138923;-79
2023/04/25 16:02:48;;;;;;;3.80;3.20;;;;;;;11.30;57.31;98877.58;217970;1257;140419;-75
2023/04/25 16:07:52;;;;;;;3.70;3.20;;;;;;;11.32;57.39;98877.69;217875;1260;140125;-73
2023/04/25 16:12:55;;;;;;;3.40;2.80;;;;;;;11.28;57.35;98879.02;219117;1257;139071;-73
2023/04/25 16:17:57;;;;;;;5.90;3.60;;;;;;;11.22;57.40;98878.17;217964;1260;139947;-74
2023/04/25 16:23:00;;;;;;;3.60;3.30;;;;;;;11.12;57.52;98889.70;217652;1260;139297;-74
2023/04/25 16:28:02;;;;;;;4.10;3.70;;;;;;;11.11;57.57;98892.64;217928;1257;139285;-73
2023/04/25 16:33:04;;;;;;;6.20;3.80;;;;;;;11.09;57.71;98887.38;217388;1257;139906;-72
2023/04/25 16:38:07;;;;;;;4.40;2.90;;;;;;;11.01;58.03;98883.72;217517;1260;139431;-72
2023/04/25 16:43:10;;;;;;;4.40;3.30;;;;;;;10.96;58.20;98889.09;218433;1257;139434;-72
2023/04/25 16:48:14;;;;;;;9.20;4.50;;;;;;;10.92;58.40;98891.40;219767;1258;139820;-71
2023/04/25 16:53:20;;;;;;;10.30;5.50;;;;;;;10.86;58.29;98893.02;220520;1257;139646;-73
2023/04/25 16:58:25;;;;;;;9.80;4.60;;;;;;;10.86;58.62;98897.08;220429;1256;140496;-72
2023/04/25 17:03:30;;;;;;;10.80;4.60;;;;;;;10.83;58.54;98898.59;219912;1256;139061;-72
2023/04/25 17:08:37;;;;;;;9.50;4.60;;;;;;;10.81;59.04;98894.42;219945;1258;140887;-71
2023/04/25 17:13:42;;;;;;;8.90;5.40;;;;;;;10.79;58.92;98904.11;219247;1257;139266;-72
2023/04/25 17:18:46;;;;;;;9.50;3.60;;;;;;;10.76;59.19;98907.45;218808;1256;140181;-73
2023/04/25 17:23:49;;;;;;;4.20;3.50;;;;;;;10.69;59.34;98906.54;218162;1256;140480;-73
2023/04/25 17:28:53;;;;;;;15.50;6.60;;;;;;;10.60;59.52;98913.90;217787;1257;140084;-73
2023/04/25 17:33:58;;;;;;;16.00;8.70;;;;;;;10.53;59.88;98917.88;218941;1256;140260;-74
2023/04/25 17:39:00;;;;;;;11.50;5.60;;;;;;;10.47;60.19;98923.41;217815;1257;139252;-74
2023/04/25 17:44:03;;;;;;;15.50;7.60;;;;;;;10.33;60.14;98930.98;218511;1256;139555;-73
2023/04/25 17:49:06;;;;;;;10.30;6.70;;;;;;;10.24;60.55;98931.42;217576;1257;141557;-72
2023/04/25 17:54:08;;;;;;;9.90;5.70;;;;;;;10.21;60.76;98937.52;217746;1256;140274;-72
2023/04/25 17:59:12;;;;;;;9.60;5.50;;;;;;;10.21;60.82;98943.54;217690;1257;140397;-76
2023/04/25 18:04:16;;;;;;;7.50;3.90;;;;;;;10.19;61.14;98944.73;217959;1260;139308;-76
2023/04/25 18:09:22;;;;;;;7.50;5.10;;;;;;;10.15;61.11;98951.70;218365;1257;139005;-74
2023/04/25 18:14:26;;;;;;;9.60;6.00;;;;;;;10.10;61.51;98954.20;217677;1256;139364;-75
2023/04/25 18:19:28;;;;;;;8.20;4.50;;;;;;;10.06;61.69;98965.05;218189;1257;139282;-74
2023/04/25 18:24:32;;;;;;;5.90;4.70;;;;;;;10.05;62.09;98973.77;218259;1259;209757;-74
2023/04/25 18:29:37;;;;;;;7.00;4.80;;;;;;;10.04;62.23;98982.45;217777;1256;139667;-71
2023/04/25 18:34:42;;;;;;;10.80;6.70;;;;;;;9.99;62.57;98996.70;217588;1259;140929;-74
2023/04/25 18:39:47;;;;;;;9.00;4.50;;;;;;;9.79;63.60;99012.84;218180;1257;139426;-71
2023/04/25 18:44:51;;;;;;;11.60;5.30;;;;;;;9.61;64.68;99018.41;217836;1257;140622;-71
2023/04/25 18:49:53;;;;;;;14.40;6.70;;;;;;;9.43;65.64;99031.05;218826;1256;139917;-71
2023/04/25 18:54:56;;;;;;;11.30;6.60;;;;;;;9.27;66.49;99040.64;220445;1256;140460;-71
2023/04/25 19:00:04;;;;;;;9.80;4.90;;;;;;;9.14;66.68;99045.60;217745;1259;140567;-70
2023/04/25 19:05:09;;;;;;;8.80;4.80;;;;;;;9.00;67.19;99050.75;218207;1256;141311;-71
2023/04/25 19:10:11;;;;;;;7.50;4.10;;;;;;;8.91;67.52;99061.06;219467;1256;139774;-75
2023/04/25 19:15:14;;;;;;;7.70;3.60;;;;;;;8.82;67.74;99066.20;219506;1256;140562;-72
2023/04/25 19:20:16;;;;;;;7.50;4.30;;;;;;;8.74;68.23;99072.05;218863;1257;139723;-71
2023/04/25 19:25:21;;;;;;;6.70;4.00;;;;;;;8.65;68.23;99075.77;218230;1257;140127;-74
2023/04/25 19:30:25;;;;;;;9.40;5.40;;;;;;;8.56;68.90;99082.50;217906;1257;140161;-74
2023/04/25 19:35:31;;;;;;;6.00;3.40;;;;;;;8.50;68.89;99087.59;218504;1256;141771;-73
2023/04/25 19:40:35;;;;;;;3.30;2.90;;;;;;;8.44;69.03;99090.09;217752;1257;139839;-70
2023/04/25 19:45:40;;;;;;;3.30;3.10;;;;;;;8.41;69.17;99090.50;217958;1256;140324;-73
2023/04/25 19:50:43;;;;;;;6.30;2.70;;;;;;;8.39;69.22;99093.16;217361;1256;140545;-71
2023/04/25 19:55:47;;;;;;;6.90;4.40;;;;;;;8.36;69.41;99096.77;217907;1256;141904;-72
2023/04/25 20:00:54;;;;;;;6.90;4.40;;;;;;;8.33;69.36;99100.09;218090;1256;139956;-72
2023/04/25 20:06:00;;;;;;;7.00;5.00;;;;;;;8.29;69.46;99096.44;217492;1257;247445;-71
2023/04/25 20:11:02;;;;;;;7.10;3.90;;;;;;;8.27;69.68;99101.17;217536;1257;139210;-72
2023/04/25 20:16:05;;;;;;;6.10;4.60;;;;;;;8.26;69.76;99104.98;217727;1256;140744;-71
2023/04/25 20:21:09;;;;;;;5.90;3.50;;;;;;;8.25;70.33;99107.36;217478;1257;139723;-70
2023/04/25 20:26:13;;;;;;;8.50;5.20;;;;;;;8.23;70.01;99113.70;218995;1256;139843;-70
2023/04/25 20:31:16;;;;;;;7.20;5.20;;;;;;;8.21;69.89;99116.47;218461;1257;140604;-71
2023/04/25 20:36:20;;;;;;;6.40;4.40;;;;;;;8.19;70.17;99118.52;219443;1256;139472;-70
2023/04/25 20:41:25;;;;;;;6.10;4.60;;;;;;;8.18;70.47;99123.48;219454;1256;139182;-71
2023/04/25 20:46:29;;;;;;;6.40;4.10;;;;;;;8.19;70.25;99121.53;219837;1257;140293;-71
2023/04/25 20:51:35;;;;;;;9.90;4.60;;;;;;;8.17;70.00;99122.55;219322;1256;140820;-73
2023/04/25 20:56:55;;;;;;;6.50;3.60;;;;;;;8.14;70.24;99124.08;218256;1257;139657;-74
2023/04/25 21:01:59;;;;;;;13.10;4.70;;;;;;;8.16;70.25;99128.90;219985;1256;139959;-78
2023/04/25 21:07:02;;;;;;;3.70;3.20;;;;;;;8.17;69.93;99134.19;219340;1256;140739;-78
2023/04/25 21:12:05;;;;;;;5.10;3.20;;;;;;;8.17;69.85;99133.49;218805;1256;139359;-76
2023/04/25 21:17:08;;;;;;;7.70;4.30;;;;;;;8.17;69.89;99131.21;218312;1256;141133;-76
2023/04/25 21:22:11;;;;;;;7.70;3.60;;;;;;;8.18;69.63;99138.23;217997;1257;139802;-76
2023/04/25 21:27:18;;;;;;;7.20;2.80;;;;;;;8.14;69.02;99137.72;218805;1256;140933;-77
2023/04/25 21:32:22;;;;;;;9.00;4.20;;;;;;;8.07;68.22;99138.69;218409;1256;139722;-71
2023/04/25 21:37:26;;;;;;;7.30;2.80;;;;;;;8.02;67.58;99136.13;217651;1257;140204;-71
2023/04/25 21:42:29;;;;;;;7.90;3.30;;;;;;;7.96;66.76;99137.17;217991;1256;139353;-70
2023/04/25 21:47:32;;;;;;;10.40;4.60;;;;;;;7.90;66.63;99140.70;217626;1260;139482;-70
2023/04/25 21:52:36;;;;;;;4.50;3.00;;;;;;;7.86;66.31;99142.31;218121;1256;141810;-72
2023/04/25 21:57:38;;;;;;;10.80;4.10;;;;;;;7.81;66.04;99153.66;217640;1257;141022;-70
2023/04/25 22:02:42;;;;;;;7.40;2.60;;;;;;;7.77;65.54;99151.98;218024;1259;139854;-70
2023/04/25 22:07:46;;;;;;;6.70;3.30;;;;;;;7.73;64.86;99158.41;218544;1256;140608;-70
2023/04/25 22:12:49;;;;;;;12.30;3.00;;;;;;;7.65;64.69;99156.16;218115;1257;140912;-73
2023/04/25 22:17:57;;;;;;;5.20;2.50;;;;;;;7.59;64.42;99163.19;218493;1256;141125;-69
2023/04/25 22:23:00;;;;;;;19.10;4.40;;;;;;;7.55;64.12;99165.52;218060;1256;140209;-74
2023/04/25 22:28:04;;;;;;;5.60;3.70;;;;;;;7.49;63.91;99174.45;219471;1255;139606;-75
2023/04/25 22:33:07;;;;;;;8.90;3.70;;;;;;;7.42;63.45;99182.33;218381;1256;139550;-75
2023/04/25 22:38:10;;;;;;;7.50;4.10;;;;;;;7.35;63.75;99187.88;219325;1256;139447;-74
2023/04/25 22:43:14;;;;;;;14.80;3.60;;;;;;;7.25;63.32;99190.30;219530;1256;140234;-75
2023/04/25 22:48:17;;;;;;;9.00;3.30;;;;;;;7.16;63.23;99191.63;218946;1256;139872;-73
2023/04/25 22:53:20;;;;;;;7.20;4.70;;;;;;;7.05;62.85;99195.39;220366;1256;139973;-75
2023/04/25 22:58:24;;;;;;;9.00;3.30;;;;;;;6.94;62.85;99191.02;219302;1256;141105;-73
2023/04/25 23:03:31;;;;;;;11.40;3.30;;;;;;;6.81;62.45;99194.40;218392;1256;139789;-74
2023/04/25 23:08:34;;;;;;;5.70;3.60;;;;;;;6.66;62.29;99191.89;217839;1257;139580;-74
2023/04/25 23:13:37;;;;;;;7.60;3.70;;;;;;;6.54;62.80;99197.96;218265;1257;139636;-72
2023/04/25 23:18:41;;;;;;;6.50;2.70;;;;;;;6.46;62.95;99202.73;218303;1256;139724;-72
2023/04/25 23:23:44;;;;;;;8.70;3.40;;;;;;;6.33;62.85;99201.01;217814;1259;139659;-71
2023/04/25 23:28:47;;;;;;;12.50;3.30;;;;;;;6.23;63.29;99203.43;218700;1259;140136;-70